sensor_id;sensor_type;location;lat;lon;timestamp;P1;durP1;ratioP1;P2;durP2;ratioP2
4290;SDS011;2159;50.906;7.152;2022-12-13T00:00:31;25.07;;;13.00;;
4290;SDS011;2159;50.906;7.152;2022-12-13T00:02:58;26.40;;;13.77;;
4290;SDS011;2159;50.906;7.152;2022-12-13T00:05:26;24.63;;;12.53;;
4290;SDS011;2159;50.906;7.152;2022-12-13T00:07:55;26.50;;;13.60;;
4290;SDS011;2159;50.906;7.152;2022-12-13T00:10:22;22.73;;;12.10;;
4290;SDS011;2159;50.906;7.152;2022-12-13T00:12:50;24.40;;;13.47;;
4290;SDS011;2159;50.906;7.152;2022-12-13T00:15:17;26.30;;;13.30;;
4290;SDS011;2159;50.906;7.152;2022-12-13T00:17:45;25.50;;;13.60;;
4290;SDS011;2159;50.906;7.152;2022-12-13T00:20:12;24.60;;;12.73;;
4290;SDS011;2159;50.906;7.152;2022-12-13T00:22:40;26.13;;;13.03;;
4290;SDS011;2159;50.906;7.152;2022-12-13T00:25:09;23.33;;;12.00;;
4290;SDS011;2159;50.906;7.152;2022-12-13T00:27:37;20.70;;;12.07;;
4290;SDS011;2159;50.906;7.152;2022-12-13T00:30:05;22.47;;;12.60;;
4290;SDS011;2159;50.906;7.152;2022-12-13T00:32:32;23.00;;;12.27;;
4290;SDS011;2159;50.906;7.152;2022-12-13T00:35:00;20.33;;;11.33;;
4290;SDS011;2159;50.906;7.152;2022-12-13T00:37:27;23.13;;;12.13;;
4290;SDS011;2159;50.906;7.152;2022-12-13T00:39:55;22.80;;;12.27;;
4290;SDS011;2159;50.906;7.152;2022-12-13T00:42:24;25.37;;;12.37;;
4290;SDS011;2159;50.906;7.152;2022-12-13T00:44:51;19.90;;;11.73;;
4290;SDS011;2159;50.906;7.152;2022-12-13T00:47:19;22.40;;;12.30;;
4290;SDS011;2159;50.906;7.152;2022-12-13T00:49:47;22.70;;;12.50;;
4290;SDS011;2159;50.906;7.152;2022-12-13T00:52:15;21.83;;;11.70;;
4290;SDS011;2159;50.906;7.152;2022-12-13T00:54:42;26.53;;;12.23;;
4290;SDS011;2159;50.906;7.152;2022-12-13T00:57:10;21.83;;;12.20;;
4290;SDS011;2159;50.906;7.152;2022-12-13T00:59:38;26.97;;;12.83;;
4290;SDS011;2159;50.906;7.152;2022-12-13T01:02:06;22.53;;;12.80;;
4290;SDS011;2159;50.906;7.152;2022-12-13T01:04:33;23.20;;;12.93;;
4290;SDS011;2159;50.906;7.152;2022-12-13T01:07:01;26.00;;;13.60;;
4290;SDS011;2159;50.906;7.152;2022-12-13T01:09:28;26.40;;;12.50;;
4290;SDS011;2159;50.906;7.152;2022-12-13T01:11:57;26.77;;;12.97;;
4290;SDS011;2159;50.906;7.152;2022-12-13T01:14:25;23.93;;;13.00;;
4290;SDS011;2159;50.906;7.152;2022-12-13T01:16:55;24.83;;;12.90;;
4290;SDS011;2159;50.906;7.152;2022-12-13T01:19:23;23.30;;;12.50;;
4290;SDS011;2159;50.906;7.152;2022-12-13T01:21:53;25.80;;;13.33;;
4290;SDS011;2159;50.906;7.152;2022-12-13T01:24:20;24.97;;;12.53;;
4290;SDS011;2159;50.906;7.152;2022-12-13T01:26:49;23.90;;;12.63;;
4290;SDS011;2159;50.906;7.152;2022-12-13T01:29:22;22.87;;;12.00;;
4290;SDS011;2159;50.906;7.152;2022-12-13T01:31:51;20.67;;;11.73;;
4290;SDS011;2159;50.906;7.152;2022-12-13T01:34:21;25.07;;;12.20;;
4290;SDS011;2159;50.906;7.152;2022-12-13T01:36:52;23.37;;;11.90;;
4290;SDS011;2159;50.906;7.152;2022-12-13T01:39:24;26.53;;;13.40;;
4290;SDS011;2159;50.906;7.152;2022-12-13T01:41:53;26.00;;;13.17;;
4290;SDS011;2159;50.906;7.152;2022-12-13T01:47:11;22.77;;;12.77;;
4290;SDS011;2159;50.906;7.152;2022-12-13T01:49:42;27.00;;;13.30;;
4290;SDS011;2159;50.906;7.152;2022-12-13T01:52:09;23.53;;;12.73;;
4290;SDS011;2159;50.906;7.152;2022-12-13T01:54:39;21.40;;;11.90;;
4290;SDS011;2159;50.906;7.152;2022-12-13T01:57:12;24.47;;;12.90;;
4290;SDS011;2159;50.906;7.152;2022-12-13T01:59:41;25.30;;;13.50;;
4290;SDS011;2159;50.906;7.152;2022-12-13T02:02:10;24.80;;;12.63;;
4290;SDS011;2159;50.906;7.152;2022-12-13T02:04:38;24.03;;;13.00;;
4290;SDS011;2159;50.906;7.152;2022-12-13T02:07:11;28.33;;;14.53;;
4290;SDS011;2159;50.906;7.152;2022-12-13T02:09:48;24.70;;;12.83;;
4290;SDS011;2159;50.906;7.152;2022-12-13T02:12:23;23.93;;;12.50;;
4290;SDS011;2159;50.906;7.152;2022-12-13T02:14:55;22.90;;;12.33;;
4290;SDS011;2159;50.906;7.152;2022-12-13T02:17:26;23.93;;;12.83;;
4290;SDS011;2159;50.906;7.152;2022-12-13T02:20:10;24.93;;;12.13;;
4290;SDS011;2159;50.906;7.152;2022-12-13T02:22:52;25.83;;;12.97;;
4290;SDS011;2159;50.906;7.152;2022-12-13T02:25:32;23.40;;;12.80;;
4290;SDS011;2159;50.906;7.152;2022-12-13T02:28:05;25.53;;;13.23;;
4290;SDS011;2159;50.906;7.152;2022-12-13T02:30:59;24.80;;;12.10;;
4290;SDS011;2159;50.906;7.152;2022-12-13T02:33:31;25.70;;;12.47;;
4290;SDS011;2159;50.906;7.152;2022-12-13T02:36:04;31.23;;;13.53;;
4290;SDS011;2159;50.906;7.152;2022-12-13T02:38:34;26.27;;;14.37;;
4290;SDS011;2159;50.906;7.152;2022-12-13T02:41:04;27.20;;;14.10;;
4290;SDS011;2159;50.906;7.152;2022-12-13T02:43:34;32.40;;;15.20;;
4290;SDS011;2159;50.906;7.152;2022-12-13T02:46:12;25.80;;;13.17;;
4290;SDS011;2159;50.906;7.152;2022-12-13T02:48:40;28.27;;;14.23;;
4290;SDS011;2159;50.906;7.152;2022-12-13T02:51:09;23.57;;;13.43;;
4290;SDS011;2159;50.906;7.152;2022-12-13T02:53:38;26.30;;;13.13;;
4290;SDS011;2159;50.906;7.152;2022-12-13T02:56:06;24.50;;;12.50;;
4290;SDS011;2159;50.906;7.152;2022-12-13T02:58:34;26.17;;;12.70;;
4290;SDS011;2159;50.906;7.152;2022-12-13T03:01:07;24.67;;;12.80;;
4290;SDS011;2159;50.906;7.152;2022-12-13T03:03:58;24.03;;;12.67;;
4290;SDS011;2159;50.906;7.152;2022-12-13T03:06:29;23.17;;;13.07;;
4290;SDS011;2159;50.906;7.152;2022-12-13T03:09:07;23.20;;;12.50;;
4290;SDS011;2159;50.906;7.152;2022-12-13T03:11:40;22.17;;;11.90;;
4290;SDS011;2159;50.906;7.152;2022-12-13T03:14:28;22.73;;;11.97;;
4290;SDS011;2159;50.906;7.152;2022-12-13T03:16:57;23.97;;;12.47;;
4290;SDS011;2159;50.906;7.152;2022-12-13T03:19:26;22.40;;;11.70;;
4290;SDS011;2159;50.906;7.152;2022-12-13T03:21:54;24.20;;;13.20;;
4290;SDS011;2159;50.906;7.152;2022-12-13T03:24:21;26.50;;;13.37;;
4290;SDS011;2159;50.906;7.152;2022-12-13T03:26:49;24.03;;;12.10;;
4290;SDS011;2159;50.906;7.152;2022-12-13T03:29:17;23.27;;;12.60;;
4290;SDS011;2159;50.906;7.152;2022-12-13T03:31:50;25.90;;;12.80;;
4290;SDS011;2159;50.906;7.152;2022-12-13T03:34:17;23.70;;;11.90;;
4290;SDS011;2159;50.906;7.152;2022-12-13T03:36:49;23.40;;;12.57;;
4290;SDS011;2159;50.906;7.152;2022-12-13T03:39:17;23.93;;;12.80;;
4290;SDS011;2159;50.906;7.152;2022-12-13T03:41:45;26.90;;;13.17;;
4290;SDS011;2159;50.906;7.152;2022-12-13T03:44:12;24.03;;;13.13;;
4290;SDS011;2159;50.906;7.152;2022-12-13T03:46:40;24.30;;;13.50;;
4290;SDS011;2159;50.906;7.152;2022-12-13T03:49:07;24.10;;;13.33;;
4290;SDS011;2159;50.906;7.152;2022-12-13T03:51:42;26.87;;;13.50;;
4290;SDS011;2159;50.906;7.152;2022-12-13T03:54:11;26.10;;;13.17;;
4290;SDS011;2159;50.906;7.152;2022-12-13T03:56:38;22.23;;;12.53;;
4290;SDS011;2159;50.906;7.152;2022-12-13T03:59:05;25.07;;;13.47;;
4290;SDS011;2159;50.906;7.152;2022-12-13T04:01:33;26.77;;;13.80;;
4290;SDS011;2159;50.906;7.152;2022-12-13T04:04:00;28.73;;;13.50;;
4290;SDS011;2159;50.906;7.152;2022-12-13T04:06:28;24.93;;;13.27;;
4290;SDS011;2159;50.906;7.152;2022-12-13T04:08:58;24.07;;;12.90;;
4290;SDS011;2159;50.906;7.152;2022-12-13T04:11:27;24.50;;;12.73;;
4290;SDS011;2159;50.906;7.152;2022-12-13T04:14:12;26.03;;;12.60;;
4290;SDS011;2159;50.906;7.152;2022-12-13T04:16:48;24.13;;;12.83;;
4290;SDS011;2159;50.906;7.152;2022-12-13T04:19:15;22.77;;;13.17;;
4290;SDS011;2159;50.906;7.152;2022-12-13T04:21:49;27.53;;;13.40;;
4290;SDS011;2159;50.906;7.152;2022-12-13T04:24:16;27.87;;;13.10;;
4290;SDS011;2159;50.906;7.152;2022-12-13T04:26:45;24.33;;;12.20;;
4290;SDS011;2159;50.906;7.152;2022-12-13T04:29:13;27.07;;;13.50;;
4290;SDS011;2159;50.906;7.152;2022-12-13T04:31:40;23.10;;;12.57;;
4290;SDS011;2159;50.906;7.152;2022-12-13T04:34:08;26.60;;;12.97;;
4290;SDS011;2159;50.906;7.152;2022-12-13T04:36:35;25.27;;;13.00;;
4290;SDS011;2159;50.906;7.152;2022-12-13T04:39:03;29.13;;;13.47;;
4290;SDS011;2159;50.906;7.152;2022-12-13T04:41:49;24.37;;;12.50;;
4290;SDS011;2159;50.906;7.152;2022-12-13T04:44:18;26.07;;;13.30;;
4290;SDS011;2159;50.906;7.152;2022-12-13T04:46:54;27.73;;;13.13;;
4290;SDS011;2159;50.906;7.152;2022-12-13T04:49:26;27.20;;;13.57;;
4290;SDS011;2159;50.906;7.152;2022-12-13T04:51:54;26.50;;;14.20;;
4290;SDS011;2159;50.906;7.152;2022-12-13T04:54:26;27.10;;;13.20;;
4290;SDS011;2159;50.906;7.152;2022-12-13T04:57:04;27.40;;;13.00;;
4290;SDS011;2159;50.906;7.152;2022-12-13T04:59:31;25.47;;;13.50;;
4290;SDS011;2159;50.906;7.152;2022-12-13T05:01:59;27.10;;;12.53;;
4290;SDS011;2159;50.906;7.152;2022-12-13T05:04:26;27.90;;;13.70;;
4290;SDS011;2159;50.906;7.152;2022-12-13T05:06:58;26.40;;;13.50;;
4290;SDS011;2159;50.906;7.152;2022-12-13T05:09:25;26.20;;;13.03;;
4290;SDS011;2159;50.906;7.152;2022-12-13T05:11:53;25.80;;;12.97;;
4290;SDS011;2159;50.906;7.152;2022-12-13T05:14:28;25.00;;;13.10;;
4290;SDS011;2159;50.906;7.152;2022-12-13T05:16:56;23.10;;;13.00;;
4290;SDS011;2159;50.906;7.152;2022-12-13T05:19:24;23.77;;;12.07;;
4290;SDS011;2159;50.906;7.152;2022-12-13T05:21:56;24.67;;;12.50;;
4290;SDS011;2159;50.906;7.152;2022-12-13T05:24:27;25.77;;;13.20;;
4290;SDS011;2159;50.906;7.152;2022-12-13T05:26:54;27.70;;;13.77;;
4290;SDS011;2159;50.906;7.152;2022-12-13T05:29:22;25.97;;;13.50;;
4290;SDS011;2159;50.906;7.152;2022-12-13T05:31:50;26.40;;;12.90;;
4290;SDS011;2159;50.906;7.152;2022-12-13T05:34:18;23.40;;;12.30;;
4290;SDS011;2159;50.906;7.152;2022-12-13T05:36:46;25.60;;;12.70;;
4290;SDS011;2159;50.906;7.152;2022-12-13T05:39:13;23.17;;;12.93;;
4290;SDS011;2159;50.906;7.152;2022-12-13T05:41:54;23.57;;;12.40;;
4290;SDS011;2159;50.906;7.152;2022-12-13T05:44:27;24.70;;;12.53;;
4290;SDS011;2159;50.906;7.152;2022-12-13T05:46:56;20.43;;;11.83;;
4290;SDS011;2159;50.906;7.152;2022-12-13T05:49:27;24.50;;;12.60;;
4290;SDS011;2159;50.906;7.152;2022-12-13T05:51:54;25.40;;;12.40;;
4290;SDS011;2159;50.906;7.152;2022-12-13T05:54:22;28.30;;;13.90;;
4290;SDS011;2159;50.906;7.152;2022-12-13T05:56:49;29.13;;;14.20;;
4290;SDS011;2159;50.906;7.152;2022-12-13T05:59:17;24.40;;;12.60;;
4290;SDS011;2159;50.906;7.152;2022-12-13T06:01:44;23.27;;;12.40;;
4290;SDS011;2159;50.906;7.152;2022-12-13T06:04:13;28.40;;;12.83;;
4290;SDS011;2159;50.906;7.152;2022-12-13T06:06:48;28.40;;;13.30;;
4290;SDS011;2159;50.906;7.152;2022-12-13T06:09:16;23.43;;;13.10;;
4290;SDS011;2159;50.906;7.152;2022-12-13T06:11:44;25.13;;;12.63;;
4290;SDS011;2159;50.906;7.152;2022-12-13T06:14:11;21.73;;;11.30;;
4290;SDS011;2159;50.906;7.152;2022-12-13T06:16:48;22.03;;;11.60;;
4290;SDS011;2159;50.906;7.152;2022-12-13T06:19:17;23.60;;;12.93;;
4290;SDS011;2159;50.906;7.152;2022-12-13T06:21:44;22.40;;;12.00;;
4290;SDS011;2159;50.906;7.152;2022-12-13T06:24:12;21.27;;;11.27;;
4290;SDS011;2159;50.906;7.152;2022-12-13T06:26:40;22.73;;;11.47;;
4290;SDS011;2159;50.906;7.152;2022-12-13T06:29:10;23.70;;;12.10;;
4290;SDS011;2159;50.906;7.152;2022-12-13T06:31:53;19.17;;;10.87;;
4290;SDS011;2159;50.906;7.152;2022-12-13T06:34:31;21.40;;;11.37;;
4290;SDS011;2159;50.906;7.152;2022-12-13T06:37:00;21.00;;;11.27;;
4290;SDS011;2159;50.906;7.152;2022-12-13T06:39:27;21.30;;;11.90;;
4290;SDS011;2159;50.906;7.152;2022-12-13T06:41:58;22.23;;;11.60;;
4290;SDS011;2159;50.906;7.152;2022-12-13T06:44:26;19.90;;;11.87;;
4290;SDS011;2159;50.906;7.152;2022-12-13T06:46:54;23.87;;;11.90;;
4290;SDS011;2159;50.906;7.152;2022-12-13T06:49:37;23.13;;;12.00;;
4290;SDS011;2159;50.906;7.152;2022-12-13T06:52:08;23.27;;;12.27;;
4290;SDS011;2159;50.906;7.152;2022-12-13T06:54:35;23.37;;;12.33;;
4290;SDS011;2159;50.906;7.152;2022-12-13T06:57:03;27.07;;;12.43;;
4290;SDS011;2159;50.906;7.152;2022-12-13T06:59:30;22.80;;;11.40;;
4290;SDS011;2159;50.906;7.152;2022-12-13T07:01:58;22.20;;;12.30;;
4290;SDS011;2159;50.906;7.152;2022-12-13T07:04:29;21.63;;;11.67;;
4290;SDS011;2159;50.906;7.152;2022-12-13T07:06:56;24.63;;;12.00;;
4290;SDS011;2159;50.906;7.152;2022-12-13T07:09:28;23.13;;;11.10;;
4290;SDS011;2159;50.906;7.152;2022-12-13T07:11:56;22.93;;;11.63;;
4290;SDS011;2159;50.906;7.152;2022-12-13T07:14:24;23.23;;;11.20;;
4290;SDS011;2159;50.906;7.152;2022-12-13T07:16:51;23.60;;;11.43;;
4290;SDS011;2159;50.906;7.152;2022-12-13T07:19:28;22.23;;;11.10;;
4290;SDS011;2159;50.906;7.152;2022-12-13T07:22:00;22.23;;;11.20;;
4290;SDS011;2159;50.906;7.152;2022-12-13T07:24:29;21.17;;;11.90;;
4290;SDS011;2159;50.906;7.152;2022-12-13T07:26:57;21.37;;;11.57;;
4290;SDS011;2159;50.906;7.152;2022-12-13T07:29:24;21.00;;;11.57;;
4290;SDS011;2159;50.906;7.152;2022-12-13T07:31:51;22.07;;;11.80;;
4290;SDS011;2159;50.906;7.152;2022-12-13T07:34:27;21.60;;;11.23;;
4290;SDS011;2159;50.906;7.152;2022-12-13T07:36:54;21.17;;;10.63;;
4290;SDS011;2159;50.906;7.152;2022-12-13T07:39:22;24.77;;;11.33;;
4290;SDS011;2159;50.906;7.152;2022-12-13T07:41:53;23.03;;;11.97;;
4290;SDS011;2159;50.906;7.152;2022-12-13T07:44:21;27.33;;;13.50;;
4290;SDS011;2159;50.906;7.152;2022-12-13T07:46:48;26.23;;;12.43;;
4290;SDS011;2159;50.906;7.152;2022-12-13T07:49:16;25.07;;;12.30;;
4290;SDS011;2159;50.906;7.152;2022-12-13T07:51:43;18.80;;;11.07;;
4290;SDS011;2159;50.906;7.152;2022-12-13T07:54:11;21.20;;;10.87;;
4290;SDS011;2159;50.906;7.152;2022-12-13T07:56:38;20.73;;;11.47;;
4290;SDS011;2159;50.906;7.152;2022-12-13T07:59:07;19.10;;;10.23;;
4290;SDS011;2159;50.906;7.152;2022-12-13T08:01:35;22.53;;;11.37;;
4290;SDS011;2159;50.906;7.152;2022-12-13T08:04:02;20.03;;;10.10;;
4290;SDS011;2159;50.906;7.152;2022-12-13T08:06:33;18.33;;;10.03;;
4290;SDS011;2159;50.906;7.152;2022-12-13T08:09:01;22.37;;;11.37;;
4290;SDS011;2159;50.906;7.152;2022-12-13T08:11:28;19.97;;;11.13;;
4290;SDS011;2159;50.906;7.152;2022-12-13T08:13:56;20.10;;;11.00;;
4290;SDS011;2159;50.906;7.152;2022-12-13T08:16:25;18.67;;;10.23;;
4290;SDS011;2159;50.906;7.152;2022-12-13T08:18:55;21.37;;;10.87;;
4290;SDS011;2159;50.906;7.152;2022-12-13T08:21:31;23.80;;;12.23;;
4290;SDS011;2159;50.906;7.152;2022-12-13T08:24:19;23.30;;;12.20;;
4290;SDS011;2159;50.906;7.152;2022-12-13T08:26:46;22.77;;;12.23;;
4290;SDS011;2159;50.906;7.152;2022-12-13T08:29:14;24.00;;;11.93;;
4290;SDS011;2159;50.906;7.152;2022-12-13T08:31:58;25.83;;;13.00;;
4290;SDS011;2159;50.906;7.152;2022-12-13T08:34:27;21.13;;;11.83;;
4290;SDS011;2159;50.906;7.152;2022-12-13T08:36:54;24.70;;;12.70;;
4290;SDS011;2159;50.906;7.152;2022-12-13T08:39:28;24.70;;;12.37;;
4290;SDS011;2159;50.906;7.152;2022-12-13T08:42:00;24.07;;;12.50;;
4290;SDS011;2159;50.906;7.152;2022-12-13T08:44:42;24.07;;;12.10;;
4290;SDS011;2159;50.906;7.152;2022-12-13T08:47:11;26.13;;;13.07;;
4290;SDS011;2159;50.906;7.152;2022-12-13T08:49:49;22.10;;;11.80;;
4290;SDS011;2159;50.906;7.152;2022-12-13T08:52:16;22.60;;;11.33;;
4290;SDS011;2159;50.906;7.152;2022-12-13T08:54:44;20.20;;;11.23;;
4290;SDS011;2159;50.906;7.152;2022-12-13T08:57:11;23.47;;;11.57;;
4290;SDS011;2159;50.906;7.152;2022-12-13T08:59:39;26.10;;;13.33;;
4290;SDS011;2159;50.906;7.152;2022-12-13T09:02:07;42.97;;;17.67;;
4290;SDS011;2159;50.906;7.152;2022-12-13T09:04:37;26.10;;;12.80;;
4290;SDS011;2159;50.906;7.152;2022-12-13T09:07:05;22.70;;;11.30;;
4290;SDS011;2159;50.906;7.152;2022-12-13T09:09:32;20.47;;;11.10;;
4290;SDS011;2159;50.906;7.152;2022-12-13T09:12:02;20.10;;;10.10;;
4290;SDS011;2159;50.906;7.152;2022-12-13T09:14:50;19.03;;;10.07;;
4290;SDS011;2159;50.906;7.152;2022-12-13T09:17:27;18.80;;;10.17;;
4290;SDS011;2159;50.906;7.152;2022-12-13T09:20:04;22.67;;;10.53;;
4290;SDS011;2159;50.906;7.152;2022-12-13T09:22:53;19.10;;;10.47;;
4290;SDS011;2159;50.906;7.152;2022-12-13T09:25:27;20.80;;;10.53;;
4290;SDS011;2159;50.906;7.152;2022-12-13T09:28:03;23.30;;;11.33;;
4290;SDS011;2159;50.906;7.152;2022-12-13T09:30:31;23.10;;;12.10;;
4290;SDS011;2159;50.906;7.152;2022-12-13T09:32:59;21.93;;;10.50;;
4290;SDS011;2159;50.906;7.152;2022-12-13T09:35:48;19.70;;;10.80;;
4290;SDS011;2159;50.906;7.152;2022-12-13T09:38:15;21.17;;;10.77;;
4290;SDS011;2159;50.906;7.152;2022-12-13T09:40:43;23.27;;;10.80;;
4290;SDS011;2159;50.906;7.152;2022-12-13T09:43:11;20.00;;;10.47;;
4290;SDS011;2159;50.906;7.152;2022-12-13T09:45:50;21.47;;;10.30;;
4290;SDS011;2159;50.906;7.152;2022-12-13T09:48:26;23.50;;;10.00;;
4290;SDS011;2159;50.906;7.152;2022-12-13T09:51:01;20.13;;;11.20;;
4290;SDS011;2159;50.906;7.152;2022-12-13T09:53:49;20.07;;;10.50;;
4290;SDS011;2159;50.906;7.152;2022-12-13T09:56:17;21.20;;;10.87;;
4290;SDS011;2159;50.906;7.152;2022-12-13T09:58:47;21.53;;;10.47;;
4290;SDS011;2159;50.906;7.152;2022-12-13T10:01:14;23.77;;;10.87;;
4290;SDS011;2159;50.906;7.152;2022-12-13T10:03:50;21.10;;;10.60;;
4290;SDS011;2159;50.906;7.152;2022-12-13T10:06:20;19.30;;;10.20;;
4290;SDS011;2159;50.906;7.152;2022-12-13T10:08:49;17.80;;;10.33;;
4290;SDS011;2159;50.906;7.152;2022-12-13T10:11:24;19.10;;;10.03;;
4290;SDS011;2159;50.906;7.152;2022-12-13T10:13:58;17.70;;;10.37;;
4290;SDS011;2159;50.906;7.152;2022-12-13T10:16:30;18.00;;;9.77;;
4290;SDS011;2159;50.906;7.152;2022-12-13T10:19:02;18.37;;;10.20;;
4290;SDS011;2159;50.906;7.152;2022-12-13T10:21:56;19.23;;;10.30;;
4290;SDS011;2159;50.906;7.152;2022-12-13T10:24:28;18.53;;;9.90;;
4290;SDS011;2159;50.906;7.152;2022-12-13T10:27:08;16.87;;;9.60;;
4290;SDS011;2159;50.906;7.152;2022-12-13T10:29:37;20.03;;;9.97;;
4290;SDS011;2159;50.906;7.152;2022-12-13T10:32:21;19.93;;;11.00;;
4290;SDS011;2159;50.906;7.152;2022-12-13T10:34:49;17.97;;;10.00;;
4290;SDS011;2159;50.906;7.152;2022-12-13T10:37:20;19.17;;;10.40;;
4290;SDS011;2159;50.906;7.152;2022-12-13T10:39:52;19.40;;;10.43;;
4290;SDS011;2159;50.906;7.152;2022-12-13T10:42:20;17.10;;;9.33;;
4290;SDS011;2159;50.906;7.152;2022-12-13T10:45:13;19.60;;;10.50;;
4290;SDS011;2159;50.906;7.152;2022-12-13T10:47:48;17.20;;;9.00;;
4290;SDS011;2159;50.906;7.152;2022-12-13T10:50:20;17.47;;;9.80;;
4290;SDS011;2159;50.906;7.152;2022-12-13T10:52:50;15.50;;;9.53;;
4290;SDS011;2159;50.906;7.152;2022-12-13T10:55:21;15.60;;;8.63;;
4290;SDS011;2159;50.906;7.152;2022-12-13T10:57:51;16.43;;;8.53;;
4290;SDS011;2159;50.906;7.152;2022-12-13T11:00:29;16.70;;;9.50;;
4290;SDS011;2159;50.906;7.152;2022-12-13T11:02:57;15.60;;;8.40;;
4290;SDS011;2159;50.906;7.152;2022-12-13T11:05:25;15.30;;;8.40;;
4290;SDS011;2159;50.906;7.152;2022-12-13T11:07:55;15.70;;;8.37;;
4290;SDS011;2159;50.906;7.152;2022-12-13T11:10:37;14.63;;;8.43;;
4290;SDS011;2159;50.906;7.152;2022-12-13T11:13:05;16.47;;;9.07;;
4290;SDS011;2159;50.906;7.152;2022-12-13T11:15:34;15.37;;;8.47;;
4290;SDS011;2159;50.906;7.152;2022-12-13T11:18:03;18.37;;;8.63;;
4290;SDS011;2159;50.906;7.152;2022-12-13T11:20:32;14.07;;;8.30;;
4290;SDS011;2159;50.906;7.152;2022-12-13T11:23:02;14.67;;;8.30;;
4290;SDS011;2159;50.906;7.152;2022-12-13T11:25:32;16.77;;;8.83;;
4290;SDS011;2159;50.906;7.152;2022-12-13T11:28:07;13.27;;;8.47;;
4290;SDS011;2159;50.906;7.152;2022-12-13T11:30:54;22.20;;;11.93;;
4290;SDS011;2159;50.906;7.152;2022-12-13T11:33:28;15.00;;;8.70;;
4290;SDS011;2159;50.906;7.152;2022-12-13T11:36:01;21.13;;;11.40;;
4290;SDS011;2159;50.906;7.152;2022-12-13T11:38:33;17.67;;;9.80;;
4290;SDS011;2159;50.906;7.152;2022-12-13T11:41:02;15.17;;;9.27;;
4290;SDS011;2159;50.906;7.152;2022-12-13T11:43:37;14.63;;;8.17;;
4290;SDS011;2159;50.906;7.152;2022-12-13T11:46:10;13.30;;;8.60;;
4290;SDS011;2159;50.906;7.152;2022-12-13T11:48:40;11.10;;;7.30;;
4290;SDS011;2159;50.906;7.152;2022-12-13T11:51:10;14.63;;;8.50;;
4290;SDS011;2159;50.906;7.152;2022-12-13T11:53:43;14.67;;;9.90;;
4290;SDS011;2159;50.906;7.152;2022-12-13T11:56:13;18.87;;;11.50;;
4290;SDS011;2159;50.906;7.152;2022-12-13T11:58:44;16.03;;;10.07;;
4290;SDS011;2159;50.906;7.152;2022-12-13T12:01:34;18.20;;;10.10;;
4290;SDS011;2159;50.906;7.152;2022-12-13T12:04:06;24.77;;;13.77;;
4290;SDS011;2159;50.906;7.152;2022-12-13T12:06:40;23.30;;;12.50;;
4290;SDS011;2159;50.906;7.152;2022-12-13T12:09:12;18.20;;;10.50;;
4290;SDS011;2159;50.906;7.152;2022-12-13T12:11:41;14.60;;;8.80;;
4290;SDS011;2159;50.906;7.152;2022-12-13T12:14:12;16.07;;;8.77;;
4290;SDS011;2159;50.906;7.152;2022-12-13T12:16:43;15.77;;;8.33;;
4290;SDS011;2159;50.906;7.152;2022-12-13T12:19:12;16.60;;;9.20;;
4290;SDS011;2159;50.906;7.152;2022-12-13T12:21:45;14.60;;;8.90;;
4290;SDS011;2159;50.906;7.152;2022-12-13T12:24:41;14.80;;;8.50;;
4290;SDS011;2159;50.906;7.152;2022-12-13T12:27:19;12.53;;;7.97;;
4290;SDS011;2159;50.906;7.152;2022-12-13T12:29:58;13.50;;;8.10;;
4290;SDS011;2159;50.906;7.152;2022-12-13T12:32:30;17.07;;;8.80;;
4290;SDS011;2159;50.906;7.152;2022-12-13T12:35:01;13.30;;;7.60;;
4290;SDS011;2159;50.906;7.152;2022-12-13T12:37:32;13.70;;;8.03;;
4290;SDS011;2159;50.906;7.152;2022-12-13T12:40:10;12.60;;;7.70;;
4290;SDS011;2159;50.906;7.152;2022-12-13T12:42:45;12.93;;;7.00;;
4290;SDS011;2159;50.906;7.152;2022-12-13T12:45:40;11.43;;;7.00;;
4290;SDS011;2159;50.906;7.152;2022-12-13T12:48:25;12.90;;;7.43;;
4290;SDS011;2159;50.906;7.152;2022-12-13T12:51:16;13.63;;;8.43;;
4290;SDS011;2159;50.906;7.152;2022-12-13T12:53:45;13.50;;;7.73;;
4290;SDS011;2159;50.906;7.152;2022-12-13T12:56:21;13.57;;;7.70;;
4290;SDS011;2159;50.906;7.152;2022-12-13T12:58:52;13.70;;;8.10;;
4290;SDS011;2159;50.906;7.152;2022-12-13T13:01:25;13.60;;;7.80;;
4290;SDS011;2159;50.906;7.152;2022-12-13T13:03:58;14.07;;;7.60;;
4290;SDS011;2159;50.906;7.152;2022-12-13T13:06:28;13.60;;;8.00;;
4290;SDS011;2159;50.906;7.152;2022-12-13T13:08:58;14.23;;;7.70;;
4290;SDS011;2159;50.906;7.152;2022-12-13T13:11:28;13.10;;;8.10;;
4290;SDS011;2159;50.906;7.152;2022-12-13T13:13:59;13.07;;;7.30;;
4290;SDS011;2159;50.906;7.152;2022-12-13T13:16:28;12.87;;;7.70;;
4290;SDS011;2159;50.906;7.152;2022-12-13T13:18:56;15.03;;;8.60;;
4290;SDS011;2159;50.906;7.152;2022-12-13T13:21:25;14.20;;;8.33;;
4290;SDS011;2159;50.906;7.152;2022-12-13T13:24:03;12.90;;;8.13;;
4290;SDS011;2159;50.906;7.152;2022-12-13T13:26:33;13.30;;;7.60;;
4290;SDS011;2159;50.906;7.152;2022-12-13T13:31:54;13.20;;;7.70;;
4290;SDS011;2159;50.906;7.152;2022-12-13T13:34:28;14.03;;;8.23;;
4290;SDS011;2159;50.906;7.152;2022-12-13T13:36:56;12.70;;;7.33;;
4290;SDS011;2159;50.906;7.152;2022-12-13T13:42:08;12.50;;;7.30;;
4290;SDS011;2159;50.906;7.152;2022-12-13T13:47:34;13.37;;;7.17;;
4290;SDS011;2159;50.906;7.152;2022-12-13T13:50:17;12.30;;;7.90;;
4290;SDS011;2159;50.906;7.152;2022-12-13T13:52:53;11.20;;;7.23;;
4290;SDS011;2159;50.906;7.152;2022-12-13T13:58:24;9.57;;;7.00;;
4290;SDS011;2159;50.906;7.152;2022-12-13T14:01:02;13.47;;;7.93;;
4290;SDS011;2159;50.906;7.152;2022-12-13T14:06:24;12.80;;;7.57;;
4290;SDS011;2159;50.906;7.152;2022-12-13T14:09:05;13.20;;;7.60;;
4290;SDS011;2159;50.906;7.152;2022-12-13T14:11:43;13.47;;;7.67;;
4290;SDS011;2159;50.906;7.152;2022-12-13T14:14:43;15.43;;;8.30;;
4290;SDS011;2159;50.906;7.152;2022-12-13T14:17:29;12.33;;;7.50;;
4290;SDS011;2159;50.906;7.152;2022-12-13T14:22:52;15.07;;;8.33;;
4290;SDS011;2159;50.906;7.152;2022-12-13T14:25:28;15.53;;;8.77;;
4290;SDS011;2159;50.906;7.152;2022-12-13T14:28:08;12.93;;;8.63;;
4290;SDS011;2159;50.906;7.152;2022-12-13T14:30:41;14.53;;;8.60;;
4290;SDS011;2159;50.906;7.152;2022-12-13T14:33:23;16.00;;;8.40;;
4290;SDS011;2159;50.906;7.152;2022-12-13T14:35:52;16.10;;;9.33;;
4290;SDS011;2159;50.906;7.152;2022-12-13T14:38:20;15.50;;;9.67;;
4290;SDS011;2159;50.906;7.152;2022-12-13T14:40:50;20.97;;;9.60;;
4290;SDS011;2159;50.906;7.152;2022-12-13T14:43:24;15.30;;;8.70;;
4290;SDS011;2159;50.906;7.152;2022-12-13T14:45:54;14.03;;;8.00;;
4290;SDS011;2159;50.906;7.152;2022-12-13T14:48:23;15.93;;;7.87;;
4290;SDS011;2159;50.906;7.152;2022-12-13T14:50:54;12.17;;;7.40;;
4290;SDS011;2159;50.906;7.152;2022-12-13T14:53:23;14.50;;;7.87;;
4290;SDS011;2159;50.906;7.152;2022-12-13T14:56:02;12.97;;;7.27;;
4290;SDS011;2159;50.906;7.152;2022-12-13T14:58:30;10.43;;;6.57;;
4290;SDS011;2159;50.906;7.152;2022-12-13T15:00:59;13.40;;;7.10;;
4290;SDS011;2159;50.906;7.152;2022-12-13T15:03:26;15.40;;;7.47;;
4290;SDS011;2159;50.906;7.152;2022-12-13T15:05:55;13.00;;;6.90;;
4290;SDS011;2159;50.906;7.152;2022-12-13T15:08:23;11.83;;;7.27;;
4290;SDS011;2159;50.906;7.152;2022-12-13T15:10:52;9.90;;;6.30;;
4290;SDS011;2159;50.906;7.152;2022-12-13T15:13:22;11.83;;;6.77;;
4290;SDS011;2159;50.906;7.152;2022-12-13T15:15:56;15.47;;;6.50;;
4290;SDS011;2159;50.906;7.152;2022-12-13T15:18:27;9.57;;;6.27;;
4290;SDS011;2159;50.906;7.152;2022-12-13T15:20:55;11.63;;;6.67;;
4290;SDS011;2159;50.906;7.152;2022-12-13T15:23:24;9.63;;;6.10;;
4290;SDS011;2159;50.906;7.152;2022-12-13T15:25:55;9.63;;;6.10;;
4290;SDS011;2159;50.906;7.152;2022-12-13T15:28:24;9.10;;;5.80;;
4290;SDS011;2159;50.906;7.152;2022-12-13T15:30:54;10.33;;;6.60;;
4290;SDS011;2159;50.906;7.152;2022-12-13T15:33:23;11.00;;;6.00;;
4290;SDS011;2159;50.906;7.152;2022-12-13T15:36:03;11.20;;;6.80;;
4290;SDS011;2159;50.906;7.152;2022-12-13T15:38:32;10.73;;;6.50;;